sensor_id;sensor_type;location;lat;lon;timestamp;temperature;humidity
18648;DHT22;9453;50.294;18.644;2023-04-23T04:02:18;8.20;92.70
18648;DHT22;9453;50.294;18.644;2023-04-23T04:04:46;8.20;92.90
18648;DHT22;9453;50.294;18.644;2023-04-23T04:07:14;8.40;93.30
18648;DHT22;9453;50.294;18.644;2023-04-23T04:09:41;8.40;93.40
18648;DHT22;9453;50.294;18.644;2023-04-23T04:12:08;8.50;92.90
18648;DHT22;9453;50.294;18.644;2023-04-23T04:14:35;8.50;93.10
18648;DHT22;9453;50.294;18.644;2023-04-23T04:17:01;8.50;93.20
18648;DHT22;9453;50.294;18.644;2023-04-23T04:19:31;8.50;93.00
18648;DHT22;9453;50.294;18.644;2023-04-23T04:21:59;8.50;92.90
18648;DHT22;9453;50.294;18.644;2023-04-23T04:24:28;8.60;93.00
18648;DHT22;9453;50.294;18.644;2023-04-23T04:26:57;8.50;92.40
18648;DHT22;9453;50.294;18.644;2023-04-23T04:29:24;8.60;92.70
18648;DHT22;9453;50.294;18.644;2023-04-23T04:31:52;8.60;92.40
18648;DHT22;9453;50.294;18.644;2023-04-23T04:34:19;8.60;92.40
18648;DHT22;9453;50.294;18.644;2023-04-23T04:36:47;8.60;92.40
18648;DHT22;9453;50.294;18.644;2023-04-23T04:39:16;8.70;92.70
18648;DHT22;9453;50.294;18.644;2023-04-23T04:41:43;8.70;92.90
18648;DHT22;9453;50.294;18.644;2023-04-23T04:44:11;8.80;93.10
18648;DHT22;9453;50.294;18.644;2023-04-23T04:46:39;8.80;92.90
18648;DHT22;9453;50.294;18.644;2023-04-23T04:49:08;8.90;92.50
18648;DHT22;9453;50.294;18.644;2023-04-23T04:51:35;8.90;92.50
18648;DHT22;9453;50.294;18.644;2023-04-23T04:54:04;9.00;92.50
18648;DHT22;9453;50.294;18.644;2023-04-23T04:56:32;9.10;92.20
18648;DHT22;9453;50.294;18.644;2023-04-23T04:58:58;9.10;92.00
18648;DHT22;9453;50.294;18.644;2023-04-23T05:01:26;9.20;91.90
18648;DHT22;9453;50.294;18.644;2023-04-23T05:03:53;9.30;91.80
18648;DHT22;9453;50.294;18.644;2023-04-23T05:06:20;9.30;91.60
18648;DHT22;9453;50.294;18.644;2023-04-23T05:08:47;9.40;91.60
18648;DHT22;9453;50.294;18.644;2023-04-23T05:11:16;9.50;91.60
18648;DHT22;9453;50.294;18.644;2023-04-23T05:13:43;9.60;91.50
18648;DHT22;9453;50.294;18.644;2023-04-23T05:16:10;9.70;91.40
18648;DHT22;9453;50.294;18.644;2023-04-23T05:18:38;9.80;91.30
18648;DHT22;9453;50.294;18.644;2023-04-23T05:21:05;9.90;91.10
18648;DHT22;9453;50.294;18.644;2023-04-23T05:23:33;10.00;90.60
18648;DHT22;9453;50.294;18.644;2023-04-23T05:26:02;10.10;90.50
18648;DHT22;9453;50.294;18.644;2023-04-23T05:28:30;10.20;90.30
18648;DHT22;9453;50.294;18.644;2023-04-23T05:30:57;10.40;90.00
18648;DHT22;9453;50.294;18.644;2023-04-23T05:33:25;10.50;90.20
18648;DHT22;9453;50.294;18.644;2023-04-23T05:35:52;10.70;89.70
18648;DHT22;9453;50.294;18.644;2023-04-23T05:38:20;10.80;89.30
18648;DHT22;9453;50.294;18.644;2023-04-23T05:40:47;10.90;89.00
18648;DHT22;9453;50.294;18.644;2023-04-23T05:43:14;11.10;89.00
18648;DHT22;9453;50.294;18.644;2023-04-23T05:45:42;11.20;88.60
18648;DHT22;9453;50.294;18.644;2023-04-23T05:48:09;11.30;88.60
18648;DHT22;9453;50.294;18.644;2023-04-23T05:50:36;11.50;88.30
18648;DHT22;9453;50.294;18.644;2023-04-23T05:53:03;11.60;87.90
18648;DHT22;9453;50.294;18.644;2023-04-23T05:55:30;11.80;87.60
18648;DHT22;9453;50.294;18.644;2023-04-23T05:57:57;12.00;87.40
18648;DHT22;9453;50.294;18.644;2023-04-23T06:00:24;12.10;86.80
18648;DHT22;9453;50.294;18.644;2023-04-23T06:02:52;12.20;86.30
18648;DHT22;9453;50.294;18.644;2023-04-23T06:05:20;12.40;86.10
18648;DHT22;9453;50.294;18.644;2023-04-23T06:07:47;12.50;85.80
18648;DHT22;9453;50.294;18.644;2023-04-23T06:10:13;12.70;86.00
18648;DHT22;9453;50.294;18.644;2023-04-23T06:12:40;12.80;85.60
18648;DHT22;9453;50.294;18.644;2023-04-23T06:15:08;12.90;85.50
18648;DHT22;9453;50.294;18.644;2023-04-23T06:17:36;13.10;85.80
18648;DHT22;9453;50.294;18.644;2023-04-23T06:20:06;13.20;85.80
18648;DHT22;9453;50.294;18.644;2023-04-23T06:22:33;13.40;85.50
18648;DHT22;9453;50.294;18.644;2023-04-23T06:25:00;13.50;85.10
18648;DHT22;9453;50.294;18.644;2023-04-23T06:27:27;13.70;84.40
18648;DHT22;9453;50.294;18.644;2023-04-23T06:29:54;13.80;82.90
18648;DHT22;9453;50.294;18.644;2023-04-23T06:32:21;13.90;82.50
18648;DHT22;9453;50.294;18.644;2023-04-23T06:34:48;14.00;81.00
18648;DHT22;9453;50.294;18.644;2023-04-23T06:37:17;14.10;80.30
18648;DHT22;9453;50.294;18.644;2023-04-23T06:39:44;14.30;79.60
18648;DHT22;9453;50.294;18.644;2023-04-23T06:42:11;14.40;78.80
18648;DHT22;9453;50.294;18.644;2023-04-23T06:44:38;14.50;78.20
18648;DHT22;9453;50.294;18.644;2023-04-23T06:47:05;14.60;77.70
18648;DHT22;9453;50.294;18.644;2023-04-23T06:49:31;14.70;78.30
18648;DHT22;9453;50.294;18.644;2023-04-23T06:51:58;14.80;76.70
18648;DHT22;9453;50.294;18.644;2023-04-23T06:54:27;14.90;76.00
18648;DHT22;9453;50.294;18.644;2023-04-23T06:56:54;14.90;75.40
18648;DHT22;9453;50.294;18.644;2023-04-23T06:59:21;15.10;75.10
18648;DHT22;9453;50.294;18.644;2023-04-23T07:01:48;15.10;74.00
18648;DHT22;9453;50.294;18.644;2023-04-23T07:04:15;15.20;73.80
18648;DHT22;9453;50.294;18.644;2023-04-23T07:06:42;15.30;72.40
18648;DHT22;9453;50.294;18.644;2023-04-23T07:09:09;15.40;72.00
18648;DHT22;9453;50.294;18.644;2023-04-23T07:11:37;15.50;71.70
18648;DHT22;9453;50.294;18.644;2023-04-23T07:14:04;15.50;71.90
18648;DHT22;9453;50.294;18.644;2023-04-23T07:16:31;15.60;71.70
18648;DHT22;9453;50.294;18.644;2023-04-23T07:18:59;15.70;71.70
18648;DHT22;9453;50.294;18.644;2023-04-23T07:21:27;15.80;71.60
18648;DHT22;9453;50.294;18.644;2023-04-23T07:23:55;15.80;71.40
18648;DHT22;9453;50.294;18.644;2023-04-23T07:26:23;15.90;71.10
18648;DHT22;9453;50.294;18.644;2023-04-23T07:28:52;16.00;71.20
18648;DHT22;9453;50.294;18.644;2023-04-23T07:31:19;16.10;71.50
18648;DHT22;9453;50.294;18.644;2023-04-23T07:33:46;16.20;70.90
18648;DHT22;9453;50.294;18.644;2023-04-23T07:36:13;16.30;70.90
18648;DHT22;9453;50.294;18.644;2023-04-23T07:38:40;16.40;70.90
18648;DHT22;9453;50.294;18.644;2023-04-23T07:41:07;16.40;69.90
18648;DHT22;9453;50.294;18.644;2023-04-23T07:43:34;16.50;69.20
18648;DHT22;9453;50.294;18.644;2023-04-23T07:46:03;16.70;68.50
18648;DHT22;9453;50.294;18.644;2023-04-23T07:48:30;16.70;66.70
18648;DHT22;9453;50.294;18.644;2023-04-23T07:50:58;16.80;66.20
18648;DHT22;9453;50.294;18.644;2023-04-23T07:53:25;16.80;66.30
18648;DHT22;9453;50.294;18.644;2023-04-23T07:55:53;16.90;66.20
18648;DHT22;9453;50.294;18.644;2023-04-23T07:58:20;17.00;65.70
18648;DHT22;9453;50.294;18.644;2023-04-23T08:00:47;17.10;65.10
18648;DHT22;9453;50.294;18.644;2023-04-23T08:03:15;17.20;65.20
18648;DHT22;9453;50.294;18.644;2023-04-23T08:05:42;17.30;64.80
18648;DHT22;9453;50.294;18.644;2023-04-23T08:08:12;17.40;64.00
18648;DHT22;9453;50.294;18.644;2023-04-23T08:10:39;17.60;64.10
18648;DHT22;9453;50.294;18.644;2023-04-23T08:13:06;17.60;63.70
18648;DHT22;9453;50.294;18.644;2023-04-23T08:15:33;17.70;61.80
18648;DHT22;9453;50.294;18.644;2023-04-23T08:18:01;17.80;62.30
18648;DHT22;9453;50.294;18.644;2023-04-23T08:20:33;17.80;61.80
18648;DHT22;9453;50.294;18.644;2023-04-23T08:23:00;17.90;61.70
18648;DHT22;9453;50.294;18.644;2023-04-23T08:25:27;18.00;60.80
18648;DHT22;9453;50.294;18.644;2023-04-23T08:27:53;18.00;60.70
18648;DHT22;9453;50.294;18.644;2023-04-23T08:30:21;18.10;60.70
18648;DHT22;9453;50.294;18.644;2023-04-23T08:32:49;18.10;60.60
18648;DHT22;9453;50.294;18.644;2023-04-23T08:35:19;18.20;59.80
18648;DHT22;9453;50.294;18.644;2023-04-23T08:37:47;18.20;59.00
18648;DHT22;9453;50.294;18.644;2023-04-23T08:40:14;18.40;60.00
18648;DHT22;9453;50.294;18.644;2023-04-23T08:42:42;18.40;59.90
18648;DHT22;9453;50.294;18.644;2023-04-23T08:45:11;18.50;59.10
18648;DHT22;9453;50.294;18.644;2023-04-23T08:47:40;18.60;58.90
18648;DHT22;9453;50.294;18.644;2023-04-23T08:50:09;18.70;58.60
18648;DHT22;9453;50.294;18.644;2023-04-23T08:52:39;18.80;58.40
18648;DHT22;9453;50.294;18.644;2023-04-23T08:55:09;18.80;58.30
18648;DHT22;9453;50.294;18.644;2023-04-23T08:57:38;18.90;58.00
18648;DHT22;9453;50.294;18.644;2023-04-23T09:00:06;19.00;57.70
18648;DHT22;9453;50.294;18.644;2023-04-23T09:02:35;19.00;57.70
18648;DHT22;9453;50.294;18.644;2023-04-23T09:05:02;19.10;57.40
18648;DHT22;9453;50.294;18.644;2023-04-23T09:07:33;19.10;57.00
18648;DHT22;9453;50.294;18.644;2023-04-23T09:10:00;19.10;56.50
18648;DHT22;9453;50.294;18.644;2023-04-23T09:12:30;19.20;56.60
18648;DHT22;9453;50.294;18.644;2023-04-23T09:14:57;19.30;55.70
18648;DHT22;9453;50.294;18.644;2023-04-23T09:17:27;19.40;56.40
18648;DHT22;9453;50.294;18.644;2023-04-23T09:19:54;19.40;54.90
18648;DHT22;9453;50.294;18.644;2023-04-23T09:22:46;19.40;55.30
18648;DHT22;9453;50.294;18.644;2023-04-23T09:25:15;19.50;55.60
18648;DHT22;9453;50.294;18.644;2023-04-23T09:27:44;19.60;54.20
18648;DHT22;9453;50.294;18.644;2023-04-23T09:30:12;19.60;53.60
18648;DHT22;9453;50.294;18.644;2023-04-23T09:32:40;19.70;54.00
18648;DHT22;9453;50.294;18.644;2023-04-23T09:35:08;19.70;53.60
18648;DHT22;9453;50.294;18.644;2023-04-23T09:37:36;19.80;53.10
18648;DHT22;9453;50.294;18.644;2023-04-23T09:40:04;19.80;52.60
18648;DHT22;9453;50.294;18.644;2023-04-23T09:42:33;19.90;52.40
18648;DHT22;9453;50.294;18.644;2023-04-23T09:45:04;19.90;52.70
18648;DHT22;9453;50.294;18.644;2023-04-23T09:47:32;20.00;52.10
18648;DHT22;9453;50.294;18.644;2023-04-23T09:50:00;20.10;51.10
18648;DHT22;9453;50.294;18.644;2023-04-23T09:52:27;20.20;52.10
18648;DHT22;9453;50.294;18.644;2023-04-23T09:54:56;20.30;52.10
18648;DHT22;9453;50.294;18.644;2023-04-23T09:57:24;20.50;50.90
18648;DHT22;9453;50.294;18.644;2023-04-23T09:59:51;20.60;50.30
18648;DHT22;9453;50.294;18.644;2023-04-23T10:02:19;20.70;50.70
18648;DHT22;9453;50.294;18.644;2023-04-23T10:04:52;20.90;51.60
18648;DHT22;9453;50.294;18.644;2023-04-23T10:07:19;21.00;51.40
18648;DHT22;9453;50.294;18.644;2023-04-23T10:09:46;21.20;51.50
18648;DHT22;9453;50.294;18.644;2023-04-23T10:12:13;21.40;51.20
18648;DHT22;9453;50.294;18.644;2023-04-23T10:14:41;21.50;50.40
18648;DHT22;9453;50.294;18.644;2023-04-23T10:17:09;21.60;49.40
18648;DHT22;9453;50.294;18.644;2023-04-23T10:19:38;21.60;49.90
18648;DHT22;9453;50.294;18.644;2023-04-23T10:22:09;21.70;50.10
18648;DHT22;9453;50.294;18.644;2023-04-23T10:24:39;21.80;50.70
18648;DHT22;9453;50.294;18.644;2023-04-23T10:27:14;21.90;50.70
18648;DHT22;9453;50.294;18.644;2023-04-23T10:29:42;22.00;49.60
18648;DHT22;9453;50.294;18.644;2023-04-23T10:32:10;22.10;51.20
18648;DHT22;9453;50.294;18.644;2023-04-23T10:34:39;22.10;48.60
18648;DHT22;9453;50.294;18.644;2023-04-23T10:37:07;22.10;50.40
18648;DHT22;9453;50.294;18.644;2023-04-23T10:39:36;22.10;49.40
18648;DHT22;9453;50.294;18.644;2023-04-23T10:42:04;22.20;52.50
18648;DHT22;9453;50.294;18.644;2023-04-23T10:44:35;22.20;53.90
18648;DHT22;9453;50.294;18.644;2023-04-23T10:47:04;22.20;51.90
18648;DHT22;9453;50.294;18.644;2023-04-23T10:49:32;22.20;48.20
18648;DHT22;9453;50.294;18.644;2023-04-23T10:52:02;22.30;47.30
18648;DHT22;9453;50.294;18.644;2023-04-23T10:54:33;22.20;48.30
18648;DHT22;9453;50.294;18.644;2023-04-23T10:57:02;22.30;46.70
18648;DHT22;9453;50.294;18.644;2023-04-23T10:59:30;22.10;48.70
18648;DHT22;9453;50.294;18.644;2023-04-23T11:02:07;22.10;48.70
18648;DHT22;9453;50.294;18.644;2023-04-23T11:04:39;22.10;52.30
18648;DHT22;9453;50.294;18.644;2023-04-23T11:07:09;21.70;50.20
18648;DHT22;9453;50.294;18.644;2023-04-23T11:09:38;21.50;49.70
18648;DHT22;9453;50.294;18.644;2023-04-23T11:12:07;21.30;50.00
18648;DHT22;9453;50.294;18.644;2023-04-23T11:14:42;21.20;50.30
18648;DHT22;9453;50.294;18.644;2023-04-23T11:17:13;21.10;50.30
18648;DHT22;9453;50.294;18.644;2023-04-23T11:19:41;21.20;50.90
18648;DHT22;9453;50.294;18.644;2023-04-23T11:22:35;21.30;50.60
18648;DHT22;9453;50.294;18.644;2023-04-23T11:25:03;21.40;50.40
18648;DHT22;9453;50.294;18.644;2023-04-23T11:27:31;21.40;51.10
18648;DHT22;9453;50.294;18.644;2023-04-23T11:29:58;21.30;51.10
18648;DHT22;9453;50.294;18.644;2023-04-23T11:32:27;21.30;50.60
18648;DHT22;9453;50.294;18.644;2023-04-23T11:34:54;21.30;50.50
18648;DHT22;9453;50.294;18.644;2023-04-23T11:37:23;21.40;50.00
18648;DHT22;9453;50.294;18.644;2023-04-23T11:39:52;21.40;49.70
18648;DHT22;9453;50.294;18.644;2023-04-23T11:42:21;21.50;51.10
18648;DHT22;9453;50.294;18.644;2023-04-23T11:44:48;21.50;50.10
18648;DHT22;9453;50.294;18.644;2023-04-23T11:47:15;21.50;50.10
18648;DHT22;9453;50.294;18.644;2023-04-23T11:49:43;21.40;50.60
18648;DHT22;9453;50.294;18.644;2023-04-23T11:52:10;21.30;50.70
18648;DHT22;9453;50.294;18.644;2023-04-23T11:54:39;21.30;51.10
18648;DHT22;9453;50.294;18.644;2023-04-23T11:57:08;21.40;51.40
18648;DHT22;9453;50.294;18.644;2023-04-23T11:59:35;21.50;51.70
18648;DHT22;9453;50.294;18.644;2023-04-23T12:02:02;21.50;50.80
18648;DHT22;9453;50.294;18.644;2023-04-23T12:04:30;21.50;51.10
18648;DHT22;9453;50.294;18.644;2023-04-23T12:06:58;21.60;50.20
18648;DHT22;9453;50.294;18.644;2023-04-23T12:09:27;21.70;50.80
18648;DHT22;9453;50.294;18.644;2023-04-23T12:11:55;21.80;50.60
18648;DHT22;9453;50.294;18.644;2023-04-23T12:14:27;21.90;50.40
18648;DHT22;9453;50.294;18.644;2023-04-23T12:16:55;21.80;50.30
18648;DHT22;9453;50.294;18.644;2023-04-23T12:19:26;21.80;50.10
18648;DHT22;9453;50.294;18.644;2023-04-23T12:21:55;21.80;50.50
18648;DHT22;9453;50.294;18.644;2023-04-23T12:24:24;21.90;50.60
18648;DHT22;9453;50.294;18.644;2023-04-23T12:26:52;22.00;48.80
18648;DHT22;9453;50.294;18.644;2023-04-23T12:29:21;22.00;46.70
18648;DHT22;9453;50.294;18.644;2023-04-23T12:31:50;21.90;46.70
18648;DHT22;9453;50.294;18.644;2023-04-23T12:34:18;21.80;46.40
18648;DHT22;9453;50.294;18.644;2023-04-23T12:36:47;21.80;47.70
18648;DHT22;9453;50.294;18.644;2023-04-23T12:39:26;21.90;48.50
18648;DHT22;9453;50.294;18.644;2023-04-23T12:41:57;22.00;49.00
18648;DHT22;9453;50.294;18.644;2023-04-23T12:44:29;22.10;49.20
18648;DHT22;9453;50.294;18.644;2023-04-23T12:46:59;21.90;48.60
18648;DHT22;9453;50.294;18.644;2023-04-23T12:49:28;22.00;47.40
18648;DHT22;9453;50.294;18.644;2023-04-23T12:51:58;22.10;46.50
18648;DHT22;9453;50.294;18.644;2023-04-23T12:54:27;22.30;44.90
18648;DHT22;9453;50.294;18.644;2023-04-23T12:56:54;22.40;45.70
18648;DHT22;9453;50.294;18.644;2023-04-23T12:59:21;22.60;46.90
18648;DHT22;9453;50.294;18.644;2023-04-23T13:01:49;22.80;47.30
18648;DHT22;9453;50.294;18.644;2023-04-23T13:04:17;22.90;46.70
18648;DHT22;9453;50.294;18.644;2023-04-23T13:06:45;23.10;46.00
18648;DHT22;9453;50.294;18.644;2023-04-23T13:09:12;23.10;44.30
18648;DHT22;9453;50.294;18.644;2023-04-23T13:11:39;23.20;42.00
18648;DHT22;9453;50.294;18.644;2023-04-23T13:14:08;23.30;42.20
18648;DHT22;9453;50.294;18.644;2023-04-23T13:16:35;23.40;43.20
18648;DHT22;9453;50.294;18.644;2023-04-23T13:19:02;23.40;43.20
18648;DHT22;9453;50.294;18.644;2023-04-23T13:21:30;23.30;41.90
18648;DHT22;9453;50.294;18.644;2023-04-23T13:23:57;23.30;42.70
18648;DHT22;9453;50.294;18.644;2023-04-23T13:26:24;23.30;43.50
18648;DHT22;9453;50.294;18.644;2023-04-23T13:28:54;23.20;43.80
18648;DHT22;9453;50.294;18.644;2023-04-23T13:31:21;23.10;44.30
18648;DHT22;9453;50.294;18.644;2023-04-23T13:33:47;23.10;44.30
18648;DHT22;9453;50.294;18.644;2023-04-23T13:36:14;23.10;41.60
18648;DHT22;9453;50.294;18.644;2023-04-23T13:38:43;23.10;42.90
18648;DHT22;9453;50.294;18.644;2023-04-23T13:41:10;22.90;42.30
18648;DHT22;9453;50.294;18.644;2023-04-23T13:43:37;22.80;42.90
18648;DHT22;9453;50.294;18.644;2023-04-23T13:46:05;22.70;42.30
18648;DHT22;9453;50.294;18.644;2023-04-23T13:48:32;22.70;42.80
18648;DHT22;9453;50.294;18.644;2023-04-23T13:51:00;22.90;42.40
18648;DHT22;9453;50.294;18.644;2023-04-23T13:53:27;22.90;44.40
18648;DHT22;9453;50.294;18.644;2023-04-23T13:55:56;22.80;43.40
18648;DHT22;9453;50.294;18.644;2023-04-23T13:58:23;22.80;42.90
18648;DHT22;9453;50.294;18.644;2023-04-23T14:00:50;22.60;45.20
18648;DHT22;9453;50.294;18.644;2023-04-23T14:03:17;22.60;45.10
18648;DHT22;9453;50.294;18.644;2023-04-23T14:05:44;22.70;44.90
18648;DHT22;9453;50.294;18.644;2023-04-23T14:08:12;22.70;46.20
18648;DHT22;9453;50.294;18.644;2023-04-23T14:10:39;22.80;46.50
18648;DHT22;9453;50.294;18.644;2023-04-23T14:13:08;22.90;46.20
18648;DHT22;9453;50.294;18.644;2023-04-23T14:15:35;22.90;46.40
18648;DHT22;9453;50.294;18.644;2023-04-23T14:18:02;22.90;46.40
18648;DHT22;9453;50.294;18.644;2023-04-23T14:20:31;22.90;45.40
18648;DHT22;9453;50.294;18.644;2023-04-23T14:23:02;22.80;45.30
18648;DHT22;9453;50.294;18.644;2023-04-23T14:25:33;22.90;45.60
18648;DHT22;9453;50.294;18.644;2023-04-23T14:28:22;23.10;45.30
18648;DHT22;9453;50.294;18.644;2023-04-23T14:30:49;23.20;44.80
18648;DHT22;9453;50.294;18.644;2023-04-23T14:33:16;23.40;45.20
18648;DHT22;9453;50.294;18.644;2023-04-23T14:35:45;23.50;44.60
18648;DHT22;9453;50.294;18.644;2023-04-23T14:38:12;23.50;44.60
18648;DHT22;9453;50.294;18.644;2023-04-23T14:40:39;23.70;44.30
18648;DHT22;9453;50.294;18.644;2023-04-23T14:43:07;23.70;44.00
18648;DHT22;9453;50.294;18.644;2023-04-23T14:45:35;23.70;42.40
18648;DHT22;9453;50.294;18.644;2023-04-23T14:48:02;23.80;42.40
18648;DHT22;9453;50.294;18.644;2023-04-23T14:50:29;23.80;41.60
18648;DHT22;9453;50.294;18.644;2023-04-23T14:52:56;23.80;42.00
18648;DHT22;9453;50.294;18.644;2023-04-23T14:55:23;23.60;42.40
18648;DHT22;9453;50.294;18.644;2023-04-23T14:57:50;23.30;42.70
18648;DHT22;9453;50.294;18.644;2023-04-23T15:00:18;23.10;42.90
18648;DHT22;9453;50.294;18.644;2023-04-23T15:02:48;22.90;42.80
18648;DHT22;9453;50.294;18.644;2023-04-23T15:05:15;22.90;43.40
18648;DHT22;9453;50.294;18.644;2023-04-23T15:07:42;22.90;44.30
18648;DHT22;9453;50.294;18.644;2023-04-23T15:10:15;22.90;44.00
18648;DHT22;9453;50.294;18.644;2023-04-23T15:12:48;22.90;43.70
18648;DHT22;9453;50.294;18.644;2023-04-23T15:15:21;22.90;43.70
18648;DHT22;9453;50.294;18.644;2023-04-23T15:17:53;22.80;44.00
18648;DHT22;9453;50.294;18.644;2023-04-23T15:20:20;22.90;44.10
18648;DHT22;9453;50.294;18.644;2023-04-23T15:22:47;22.90;44.20
18648;DHT22;9453;50.294;18.644;2023-04-23T15:25:14;22.90;44.30
18648;DHT22;9453;50.294;18.644;2023-04-23T15:27:42;22.80;45.00
18648;DHT22;9453;50.294;18.644;2023-04-23T15:30:09;22.90;45.40
18648;DHT22;9453;50.294;18.644;2023-04-23T15:32:36;23.10;46.20
18648;DHT22;9453;50.294;18.644;2023-04-23T15:35:06;23.40;46.40
18648;DHT22;9453;50.294;18.644;2023-04-23T15:37:34;23.80;46.60
18648;DHT22;9453;50.294;18.644;2023-04-23T15:40:00;24.10;45.10
18648;DHT22;9453;50.294;18.644;2023-04-23T15:42:27;24.30;44.50
18648;DHT22;9453;50.294;18.644;2023-04-23T15:44:54;24.60;44.60
18648;DHT22;9453;50.294;18.644;2023-04-23T15:47:22;24.90;44.40
18648;DHT22;9453;50.294;18.644;2023-04-23T15:49:49;25.20;43.00
18648;DHT22;9453;50.294;18.644;2023-04-23T15:52:17;25.10;41.20
18648;DHT22;9453;50.294;18.644;2023-04-23T15:54:45;25.00;39.80
18648;DHT22;9453;50.294;18.644;2023-04-23T15:57:12;25.00;40.50
18648;DHT22;9453;50.294;18.644;2023-04-23T15:59:38;24.80;40.30
18648;DHT22;9453;50.294;18.644;2023-04-23T16:02:05;24.60;40.90
18648;DHT22;9453;50.294;18.644;2023-04-23T16:04:32;24.30;41.70
18648;DHT22;9453;50.294;18.644;2023-04-23T16:06:59;24.10;42.40
18648;DHT22;9453;50.294;18.644;2023-04-23T16:09:28;23.80;43.00
18648;DHT22;9453;50.294;18.644;2023-04-23T16:11:55;23.60;43.60
18648;DHT22;9453;50.294;18.644;2023-04-23T16:14:22;23.30;44.40
18648;DHT22;9453;50.294;18.644;2023-04-23T16:16:49;23.10;45.40
18648;DHT22;9453;50.294;18.644;2023-04-23T16:19:16;22.90;46.30
18648;DHT22;9453;50.294;18.644;2023-04-23T16:21:44;22.60;47.20
18648;DHT22;9453;50.294;18.644;2023-04-23T16:24:11;22.40;48.10
18648;DHT22;9453;50.294;18.644;2023-04-23T16:26:39;22.20;48.50
18648;DHT22;9453;50.294;18.644;2023-04-23T16:29:06;22.00;49.20
18648;DHT22;9453;50.294;18.644;2023-04-23T16:31:34;21.80;50.40
18648;DHT22;9453;50.294;18.644;2023-04-23T16:34:01;21.70;50.50
18648;DHT22;9453;50.294;18.644;2023-04-23T16:36:28;21.50;51.40
18648;DHT22;9453;50.294;18.644;2023-04-23T16:38:56;21.30;51.90
18648;DHT22;9453;50.294;18.644;2023-04-23T16:41:23;21.20;52.80
18648;DHT22;9453;50.294;18.644;2023-04-23T16:43:51;21.00;53.10
18648;DHT22;9453;50.294;18.644;2023-04-23T16:46:18;20.90;53.10
18648;DHT22;9453;50.294;18.644;2023-04-23T16:48:45;20.80;53.20
18648;DHT22;9453;50.294;18.644;2023-04-23T16:51:12;20.70;53.20
18648;DHT22;9453;50.294;18.644;2023-04-23T16:53:39;20.60;53.10
18648;DHT22;9453;50.294;18.644;2023-04-23T16:56:06;20.60;53.20
18648;DHT22;9453;50.294;18.644;2023-04-23T16:58:34;20.50;53.50
18648;DHT22;9453;50.294;18.644;2023-04-23T17:01:02;20.50;53.80
18648;DHT22;9453;50.294;18.644;2023-04-23T17:03:29;20.40;54.20
18648;DHT22;9453;50.294;18.644;2023-04-23T17:06:08;20.30;54.60
18648;DHT22;9453;50.294;18.644;2023-04-23T17:08:36;20.20;54.80
18648;DHT22;9453;50.294;18.644;2023-04-23T17:11:04;20.10;54.80
18648;DHT22;9453;50.294;18.644;2023-04-23T17:13:31;20.10;55.40
18648;DHT22;9453;50.294;18.644;2023-04-23T17:15:58;20.00;55.60
18648;DHT22;9453;50.294;18.644;2023-04-23T17:18:29;19.90;55.70
18648;DHT22;9453;50.294;18.644;2023-04-23T17:20:56;19.80;56.20
18648;DHT22;9453;50.294;18.644;2023-04-23T17:23:26;19.70;56.40
18648;DHT22;9453;50.294;18.644;2023-04-23T17:25:55;19.60;56.90
18648;DHT22;9453;50.294;18.644;2023-04-23T17:28:22;19.50;56.90
18648;DHT22;9453;50.294;18.644;2023-04-23T17:30:53;19.40;57.20
18648;DHT22;9453;50.294;18.644;2023-04-23T17:33:24;19.30;57.70
18648;DHT22;9453;50.294;18.644;2023-04-23T17:35:55;19.20;57.90
18648;DHT22;9453;50.294;18.644;2023-04-23T17:38:22;19.10;58.40
18648;DHT22;9453;50.294;18.644;2023-04-23T17:40:50;19.00;58.60
18648;DHT22;9453;50.294;18.644;2023-04-23T17:43:27;18.90;58.90
18648;DHT22;9453;50.294;18.644;2023-04-23T17:45:59;18.80;59.00
18648;DHT22;9453;50.294;18.644;2023-04-23T17:48:26;18.70;59.30
18648;DHT22;9453;50.294;18.644;2023-04-23T17:50:58;18.60;59.60
18648;DHT22;9453;50.294;18.644;2023-04-23T17:53:26;18.50;59.90
18648;DHT22;9453;50.294;18.644;2023-04-23T17:55:53;18.50;60.10
18648;DHT22;9453;50.294;18.644;2023-04-23T17:58:24;18.40;60.50
18648;DHT22;9453;50.294;18.644;2023-04-23T18:00:51;18.30;60.70
18648;DHT22;9453;50.294;18.644;2023-04-23T18:03:18;18.30;60.80
18648;DHT22;9453;50.294;18.644;2023-04-23T18:05:46;18.20;60.80
18648;DHT22;9453;50.294;18.644;2023-04-23T18:08:15;18.10;61.20
18648;DHT22;9453;50.294;18.644;2023-04-23T18:10:44;18.00;61.60
18648;DHT22;9453;50.294;18.644;2023-04-23T18:13:11;17.90;62.10
18648;DHT22;9453;50.294;18.644;2023-04-23T18:15:39;17.90;62.80
18648;DHT22;9453;50.294;18.644;2023-04-23T18:18:06;17.70;63.30
18648;DHT22;9453;50.294;18.644;2023-04-23T18:20:34;17.60;63.70
18648;DHT22;9453;50.294;18.644;2023-04-23T18:23:03;17.60;64.30
18648;DHT22;9453;50.294;18.644;2023-04-23T18:25:31;17.50;64.70
18648;DHT22;9453;50.294;18.644;2023-04-23T18:27:58;17.40;65.00
18648;DHT22;9453;50.294;18.644;2023-04-23T18:30:25;17.30;65.40
18648;DHT22;9453;50.294;18.644;2023-04-23T18:33:01;17.20;65.90
18648;DHT22;9453;50.294;18.644;2023-04-23T18:35:28;17.20;66.30
18648;DHT22;9453;50.294;18.644;2023-04-23T18:37:59;17.10;66.60
18648;DHT22;9453;50.294;18.644;2023-04-23T18:40:27;17.00;66.80
18648;DHT22;9453;50.294;18.644;2023-04-23T18:42:56;17.00;67.40
18648;DHT22;9453;50.294;18.644;2023-04-23T18:45:23;17.00;67.50
18648;DHT22;9453;50.294;18.644;2023-04-23T18:47:54;17.10;68.60
18648;DHT22;9453;50.294;18.644;2023-04-23T18:50:30;17.00;68.70
18648;DHT22;9453;50.294;18.644;2023-04-23T18:53:00;17.00;68.70
18648;DHT22;9453;50.294;18.644;2023-04-23T18:55:27;16.90;70.00
18648;DHT22;9453;50.294;18.644;2023-04-23T18:57:56;16.80;69.90
18648;DHT22;9453;50.294;18.644;2023-04-23T19:00:23;16.70;70.50
18648;DHT22;9453;50.294;18.644;2023-04-23T19:02:50;16.60;70.80
18648;DHT22;9453;50.294;18.644;2023-04-23T19:05:17;16.50;71.20
18648;DHT22;9453;50.294;18.644;2023-04-23T19:07:44;16.40;71.70
18648;DHT22;9453;50.294;18.644;2023-04-23T19:10:13;16.30;72.40
18648;DHT22;9453;50.294;18.644;2023-04-23T19:12:40;16.20;74.10
18648;DHT22;9453;50.294;18.644;2023-04-23T19:15:11;16.10;74.70
18648;DHT22;9453;50.294;18.644;2023-04-23T19:17:40;16.00;75.00
18648;DHT22;9453;50.294;18.644;2023-04-23T19:20:08;16.00;75.50
18648;DHT22;9453;50.294;18.644;2023-04-23T19:22:37;15.90;75.80
18648;DHT22;9453;50.294;18.644;2023-04-23T19:25:05;15.80;76.30
18648;DHT22;9453;50.294;18.644;2023-04-23T19:30:00;15.70;77.30
18648;DHT22;9453;50.294;18.644;2023-04-23T19:32:30;15.60;77.70
18648;DHT22;9453;50.294;18.644;2023-04-23T19:34:58;15.50;78.00
18648;DHT22;9453;50.294;18.644;2023-04-23T19:37:25;15.50;78.50
18648;DHT22;9453;50.294;18.644;2023-04-23T19:39:52;15.40;78.70
18648;DHT22;9453;50.294;18.644;2023-04-23T19:42:19;15.30;79.20